createdAt,value
2018-04-23T00:02:13.270Z,99223.50
2018-04-23T00:04:46.686Z,99223.25
2018-04-23T00:07:20.199Z,99221.12
2018-04-23T00:09:54.426Z,99224.20
2018-04-23T00:12:27.892Z,99222.93
2018-04-23T00:15:01.314Z,99221.54
2018-04-23T00:17:38.224Z,99223.36
2018-04-23T00:20:11.602Z,99221.42
2018-04-23T00:22:45.107Z,99223.52
2018-04-23T00:25:18.722Z,99222.23
2018-04-23T00:27:52.020Z,99227.10
2018-04-23T00:30:25.435Z,99219.87
2018-04-23T00:32:59.592Z,99221.02
2018-04-23T00:35:32.939Z,99224.41
2018-04-23T00:38:06.568Z,99212.25
2018-04-23T00:40:40.631Z,99215.37
2018-04-23T00:43:14.270Z,99219.97
2018-04-23T00:45:47.864Z,99212.64
2018-04-23T00:48:22.085Z,99222.52
2018-04-23T00:50:56.764Z,99225.59
2018-04-23T00:53:40.728Z,99216.03
2018-04-23T00:56:14.052Z,99223.06
2018-04-23T00:58:47.759Z,99219.73
2018-04-23T01:01:21.461Z,99226.56
2018-04-23T01:03:56.125Z,99231.38
2018-04-23T01:06:29.409Z,99221.02
2018-04-23T01:09:02.889Z,99212.53
2018-04-23T01:11:36.322Z,99220.52
2018-04-23T01:14:09.992Z,99223.66
2018-04-23T01:16:43.391Z,99222.52
2018-04-23T01:20:45.826Z,99215.34
2018-04-23T01:23:19.122Z,99216.58
2018-04-23T01:25:52.554Z,99214.70
2018-04-23T01:28:26.062Z,99214.08
2018-04-23T01:30:59.989Z,99211.39
2018-04-23T01:33:33.304Z,99212.01
2018-04-23T01:36:07.127Z,99203.67
2018-04-23T01:38:40.392Z,99201.95
2018-04-23T01:41:13.799Z,99198.53
2018-04-23T01:43:48.384Z,99202.86
2018-04-23T01:46:21.797Z,99204.59
2018-04-23T01:48:55.046Z,99205.79
2018-04-23T01:51:28.545Z,99206.48
2018-04-23T01:54:02.226Z,99206.97
2018-04-23T01:56:35.793Z,99200.94
2018-04-23T01:59:09.350Z,99204.66
2018-04-23T02:01:42.652Z,99206.69
2018-04-23T02:04:16.350Z,99202.58
2018-04-23T02:06:50.162Z,99210.51
2018-04-23T02:09:23.431Z,99221.14
2018-04-23T02:11:57.034Z,99222.47
2018-04-23T02:14:31.136Z,99221.37
2018-04-23T02:17:05.298Z,99217.13
2018-04-23T02:19:38.764Z,99216.09
2018-04-23T02:22:12.584Z,99215.96
2018-04-23T02:24:46.648Z,99217.05
2018-04-23T02:27:20.737Z,99217.05
2018-04-23T02:29:54.784Z,99210.97
2018-04-23T02:32:28.988Z,99206.17
2018-04-23T02:35:04.021Z,99213.69
2018-04-23T02:37:37.422Z,99213.59
2018-04-23T02:40:10.761Z,99208.74
2018-04-23T02:42:44.129Z,99216.45
2018-04-23T02:45:18.006Z,99218.67
2018-04-23T02:47:51.412Z,99217.02
2018-04-23T02:50:26.150Z,99222.64
2018-04-23T02:52:59.863Z,99219.84
2018-04-23T02:55:33.171Z,99215.14
2018-04-23T02:58:06.587Z,99213.19
2018-04-23T03:00:40.042Z,99218.47
2018-04-23T03:03:13.628Z,99213.82
2018-04-23T03:05:47.014Z,99215.53
2018-04-23T03:08:20.632Z,99217.63
2018-04-23T03:10:54.434Z,99220.69
2018-04-23T03:13:27.759Z,99214.98
2018-04-23T03:16:01.628Z,99215.67
2018-04-23T03:18:35.082Z,99214.68
2018-04-23T03:21:08.456Z,99213.23
2018-04-23T03:23:42.051Z,99213.36
2018-04-23T03:26:15.563Z,99210.66
2018-04-23T03:28:49.000Z,99201.70
2018-04-23T03:31:22.862Z,99199.95
2018-04-23T03:33:56.159Z,99202.80
2018-04-23T03:36:29.471Z,99201.96
2018-04-23T03:39:03.442Z,99203.84
2018-04-23T03:41:36.837Z,99203.06
2018-04-23T03:44:10.395Z,99204.75
2018-04-23T03:46:43.975Z,99207.97
2018-04-23T03:49:17.718Z,99204.59
2018-04-23T03:51:51.045Z,99205.80
2018-04-23T03:54:24.725Z,99199.61
2018-04-23T03:56:58.181Z,99207.38
2018-04-23T03:59:32.022Z,99203.23
2018-04-23T04:02:05.679Z,99198.52
2018-04-23T04:04:39.538Z,99203.31
2018-04-23T04:07:12.975Z,99205.25
2018-04-23T04:09:46.895Z,99205.66
2018-04-23T04:12:30.308Z,99205.53
2018-04-23T04:15:15.660Z,99200.59
2018-04-23T04:18:00.763Z,99202.16
2018-04-23T04:20:34.160Z,99205.06
2018-04-23T04:23:07.678Z,99207.87
2018-04-23T04:25:41.117Z,99207.44
2018-04-23T04:28:15.143Z,99208.65
2018-04-23T04:30:49.356Z,99209.64
2018-04-23T04:33:22.835Z,99208.64
2018-04-23T04:35:56.311Z,99216.97
2018-04-23T04:38:30.723Z,99220.61
2018-04-23T04:41:04.326Z,99221.89
2018-04-23T04:43:37.621Z,99219.73
2018-04-23T04:46:11.932Z,99221.33
2018-04-23T04:48:46.430Z,99221.77
2018-04-23T04:51:20.563Z,99221.09
2018-04-23T04:53:54.340Z,99217.59
2018-04-23T04:56:31.759Z,99218.34
2018-04-23T04:59:05.665Z,99216.53
2018-04-23T05:01:39.533Z,99218.73
2018-04-23T05:04:15.719Z,99216.27
2018-04-23T05:06:49.127Z,99225.73
2018-04-23T05:09:22.911Z,99219.67
2018-04-23T05:11:56.508Z,99217.87
2018-04-23T05:14:30.238Z,99225.03
2018-04-23T05:17:04.423Z,99227.75
2018-04-23T05:19:38.200Z,99234.50
2018-04-23T05:22:13.320Z,99229.40
2018-04-23T05:24:47.914Z,99238.14
2018-04-23T05:27:21.433Z,99231.91
2018-04-23T05:29:56.124Z,99227.17
2018-04-23T05:32:30.064Z,99233.05
2018-04-23T05:35:07.643Z,99225.88
2018-04-23T05:37:48.050Z,99230.53
2018-04-23T05:40:21.714Z,99229.45
2018-04-23T05:42:56.693Z,99234.23
2018-04-23T05:45:31.928Z,99235.84
2018-04-23T05:48:05.525Z,99252.63
2018-04-23T05:50:39.604Z,99259.95
2018-04-23T05:53:24.179Z,99261.17
2018-04-23T05:55:59.369Z,99261.54
2018-04-23T05:58:32.874Z,99269.23
2018-04-23T06:01:07.725Z,99268.63
2018-04-23T06:03:41.893Z,99264.24
2018-04-23T06:06:19.597Z,99274.50
2018-04-23T06:08:53.549Z,99270.34
2018-04-23T06:11:27.052Z,99274.84
2018-04-23T06:14:00.795Z,99277.70
2018-04-23T06:16:34.377Z,99280.86
2018-04-23T06:19:15.487Z,99271.45
2018-04-23T06:21:48.872Z,99282.63
2018-04-23T06:24:22.826Z,99281.87
2018-04-23T06:26:57.363Z,99285.73
2018-04-23T06:29:31.527Z,99277.10
2018-04-23T06:32:05.685Z,99274.77
2018-04-23T06:34:39.643Z,99295.70
2018-04-23T06:37:13.047Z,99292.78
2018-04-23T06:39:47.189Z,99288.67
2018-04-23T06:42:20.561Z,99283.77
2018-04-23T06:44:54.170Z,99286.03
2018-04-23T06:47:27.969Z,99283.09
2018-04-23T06:50:01.470Z,99290.75
2018-04-23T06:52:34.947Z,99299.78
2018-04-23T06:55:09.321Z,99300.52
2018-04-23T06:57:42.800Z,99308.66
2018-04-23T07:00:16.555Z,99302.70
2018-04-23T07:03:21.018Z,99297.18
2018-04-23T07:05:55.147Z,99288.61
2018-04-23T07:08:31.168Z,99296.45
2018-04-23T07:11:16.282Z,99293.36
2018-04-23T07:16:13.942Z,99293.86
2018-04-23T07:18:47.739Z,99295.41
2018-04-23T07:21:21.685Z,99297.33
2018-04-23T07:23:56.471Z,99295.72
2018-04-23T07:26:31.604Z,99296.31
2018-04-23T07:29:05.414Z,99305.48
2018-04-23T07:31:39.554Z,99311.59
2018-04-23T07:34:14.960Z,99311.03
2018-04-23T07:36:49.219Z,99319.06
2018-04-23T07:39:23.828Z,99318.62
2018-04-23T07:41:58.938Z,99315.97
2018-04-23T07:44:33.708Z,99314.99
2018-04-23T07:47:07.731Z,99315.20
2018-04-23T07:49:41.211Z,99308.25
2018-04-23T07:52:15.688Z,99312.45
2018-04-23T07:54:49.698Z,99312.31
2018-04-23T07:57:23.190Z,99315.34
2018-04-23T07:59:57.052Z,99315.77
2018-04-23T08:02:32.184Z,99306.69
2018-04-23T08:05:05.970Z,99315.05
2018-04-23T08:07:39.682Z,99315.67
2018-04-23T08:10:14.144Z,99312.81
2018-04-23T08:12:48.480Z,99323.91
2018-04-23T08:15:22.476Z,99317.07
2018-04-23T08:17:56.868Z,99318.97
2018-04-23T08:20:30.979Z,99321.33
2018-04-23T08:23:05.087Z,99321.86
2018-04-23T08:25:38.863Z,99322.66
2018-04-23T08:28:12.145Z,99317.10
2018-04-23T08:30:45.853Z,99319.55
2018-04-23T08:33:20.631Z,99324.61
2018-04-23T08:35:54.324Z,99325.92
2018-04-23T08:38:28.984Z,99318.66
2018-04-23T08:41:02.760Z,99324.28
2018-04-23T08:43:37.797Z,99315.28
2018-04-23T08:46:12.479Z,99314.06
2018-04-23T08:48:46.432Z,99320.47
2018-04-23T08:51:20.687Z,99315.81
2018-04-23T08:53:54.660Z,99311.06
2018-04-23T08:56:28.136Z,99314.66
2018-04-23T08:59:03.187Z,99313.84
2018-04-23T09:01:36.705Z,99305.16
2018-04-23T09:04:10.556Z,99310.81
2018-04-23T09:06:44.484Z,99307.64
2018-04-23T09:09:18.424Z,99317.80
2018-04-23T09:11:52.509Z,99323.78
2018-04-23T09:14:26.352Z,99322.98
2018-04-23T09:16:59.730Z,99334.88
2018-04-23T09:19:33.464Z,99326.44
2018-04-23T09:22:07.355Z,99327.01
2018-04-23T09:24:41.988Z,99325.25
2018-04-23T09:27:18.470Z,99329.59
2018-04-23T09:29:51.897Z,99325.99
2018-04-23T09:32:26.880Z,99331.56
2018-04-23T09:35:00.274Z,99339.92
2018-04-23T09:37:35.270Z,99352.45
2018-04-23T09:40:09.695Z,99357.66
2018-04-23T09:42:44.242Z,99364.66
2018-04-23T09:45:17.963Z,99368.80
2018-04-23T09:47:51.803Z,99373.56
2018-04-23T09:50:25.502Z,99362.52
2018-04-23T09:52:58.930Z,99360.14
2018-04-23T09:55:32.506Z,99351.70
2018-04-23T09:58:07.087Z,99354.33
2018-04-23T10:00:44.193Z,99343.55
2018-04-23T10:03:18.046Z,99353.98
2018-04-23T10:05:53.379Z,99351.63
2018-04-23T10:08:27.325Z,99351.41
2018-04-23T10:11:01.321Z,99344.30
2018-04-23T10:13:34.829Z,99348.11
2018-04-23T10:16:10.526Z,99339.73
2018-04-23T10:18:43.938Z,99343.75
2018-04-23T10:21:18.247Z,99344.48
2018-04-23T10:23:53.993Z,99337.78
2018-04-23T10:26:27.382Z,99339.56
2018-04-23T10:29:01.016Z,99340.13
2018-04-23T10:31:37.872Z,99335.17
2018-04-23T10:34:11.979Z,99337.27
2018-04-23T10:36:45.855Z,99332.58
2018-04-23T10:39:19.335Z,99330.41
2018-04-23T10:41:53.305Z,99332.86
2018-04-23T10:44:27.069Z,99330.30
2018-04-23T10:47:00.598Z,99324.10
2018-04-23T10:49:35.017Z,99324.83
2018-04-23T10:52:08.484Z,99325.41
2018-04-23T10:54:41.859Z,99322.13
2018-04-23T10:57:16.657Z,99320.27
2018-04-23T10:59:50.606Z,99312.94
2018-04-23T11:02:24.181Z,99313.83
2018-04-23T11:04:58.682Z,99296.88
2018-04-23T11:07:32.663Z,99317.84
2018-04-23T11:10:06.428Z,99318.52
2018-04-23T11:12:40.977Z,99309.13
2018-04-23T11:15:16.735Z,99307.83
2018-04-23T11:17:53.216Z,99298.77
2018-04-23T11:20:27.252Z,99307.66
2018-04-23T11:23:02.211Z,99308.41
2018-04-23T11:25:36.048Z,99315.27
2018-04-23T11:28:09.575Z,99314.19
2018-04-23T11:30:46.193Z,99292.91
2018-04-23T11:33:21.668Z,99305.83
2018-04-23T11:35:55.667Z,99308.13
2018-04-23T11:38:31.585Z,99310.38
2018-04-23T11:41:06.752Z,99310.24
2018-04-23T11:43:41.038Z,99305.77
2018-04-23T11:46:16.967Z,99314.89
2018-04-23T11:48:51.031Z,99316.19
2018-04-23T11:51:24.685Z,99314.89
2018-04-23T11:53:58.323Z,99311.03
2018-04-23T11:56:32.539Z,99309.63
2018-04-23T11:59:06.757Z,99306.29
2018-04-23T12:01:41.007Z,99309.61
2018-04-23T12:04:15.079Z,99308.09
2018-04-23T12:06:50.238Z,99306.17
2018-04-23T12:09:25.067Z,99311.09
2018-04-23T12:11:58.535Z,99305.61
2018-04-23T12:14:32.357Z,99298.81
2018-04-23T12:17:07.494Z,99307.91
2018-04-23T12:19:41.249Z,99306.70
2018-04-23T12:22:15.791Z,99300.18
2018-04-23T12:24:52.074Z,99313.64
2018-04-23T12:27:29.253Z,99310.92
2018-04-23T12:30:10.643Z,99307.64
2018-04-23T12:35:19.507Z,99302.00
2018-04-23T12:38:03.117Z,99304.23
2018-04-23T12:40:50.181Z,99291.89
2018-04-23T12:43:30.686Z,99296.66
2018-04-23T12:46:06.441Z,99275.95
2018-04-23T12:48:41.457Z,99274.83
2018-04-23T12:51:19.600Z,99271.91
2018-04-23T12:53:58.417Z,99264.69
2018-04-23T12:56:33.563Z,99259.59
2018-04-23T12:59:07.361Z,99261.66
2018-04-23T13:01:43.863Z,99245.00
2018-04-23T13:04:17.941Z,99239.22
2018-04-23T13:06:56.287Z,99227.78
2018-04-23T13:09:32.745Z,99233.41
2018-04-23T13:12:11.844Z,99239.77
2018-04-23T13:14:50.360Z,99229.19
2018-04-23T13:17:35.230Z,99238.98
2018-04-23T13:20:11.797Z,99225.16
2018-04-23T13:22:56.908Z,99229.79
2018-04-23T13:25:33.663Z,99217.62
2018-04-23T13:28:12.123Z,99221.86
2018-04-23T13:30:50.437Z,99219.95
2018-04-23T13:33:44.565Z,99232.12
2018-04-23T13:36:25.750Z,99246.20
2018-04-23T13:39:03.399Z,99243.27
2018-04-23T13:41:42.467Z,99238.95
2018-04-23T13:44:24.928Z,99245.59
2018-04-23T13:47:02.137Z,99241.25
2018-04-23T13:49:47.954Z,99243.05
2018-04-23T13:52:27.103Z,99241.89
2018-04-23T13:55:03.089Z,99253.87
2018-04-23T13:57:39.732Z,99245.03
2018-04-23T14:00:14.815Z,99234.62
2018-04-23T14:02:51.580Z,99230.52
2018-04-23T14:05:33.552Z,99232.69
2018-04-23T14:10:54.689Z,99235.77
2018-04-23T14:13:34.273Z,99236.70
2018-04-23T14:16:09.309Z,99237.12
2018-04-23T14:18:44.675Z,99230.16
2018-04-23T14:21:23.421Z,99235.09
2018-04-23T14:23:57.554Z,99235.61
2018-04-23T14:26:33.412Z,99237.91
2018-04-23T14:30:36.539Z,99231.91
2018-04-23T14:33:14.046Z,99221.33
2018-04-23T14:35:48.236Z,99223.07
2018-04-23T14:38:23.444Z,99219.56
2018-04-23T14:41:00.148Z,99230.40
2018-04-23T14:43:35.490Z,99239.22
2018-04-23T14:46:10.956Z,99256.55
2018-04-23T14:48:46.080Z,99247.20
2018-04-23T14:51:28.045Z,99251.02
2018-04-23T14:54:06.145Z,99247.81
2018-04-23T14:56:42.465Z,99240.16
2018-04-23T14:59:17.868Z,99238.21
2018-04-23T15:01:52.752Z,99250.12
2018-04-23T15:04:28.514Z,99252.25
2018-04-23T15:07:08.667Z,99255.44
2018-04-23T15:09:44.294Z,99243.39
2018-04-23T15:12:20.009Z,99242.40
2018-04-23T15:14:55.695Z,99249.87
2018-04-23T15:17:33.428Z,99251.84
2018-04-23T15:20:07.820Z,99251.81
2018-04-23T15:22:42.562Z,99251.43
2018-04-23T15:25:18.761Z,99251.59
2018-04-23T15:27:52.892Z,99252.23
2018-04-23T15:30:33.250Z,99261.18
2018-04-23T15:33:10.690Z,99266.95
2018-04-23T15:35:44.904Z,99263.39
2018-04-23T15:38:21.870Z,99264.84
2018-04-23T15:40:56.139Z,99261.41
2018-04-23T15:46:14.683Z,99273.39
2018-04-23T15:48:53.218Z,99265.10
2018-04-23T15:51:33.229Z,99267.22
2018-04-23T15:54:07.095Z,99271.30
2018-04-23T15:56:42.140Z,99267.19
2018-04-23T15:59:16.388Z,99264.95
2018-04-23T16:01:52.083Z,99256.17
2018-04-23T16:04:25.810Z,99260.90
2018-04-23T16:07:01.158Z,99271.84
2018-04-23T16:09:35.549Z,99281.83
2018-04-23T16:12:09.325Z,99293.44
2018-04-23T16:14:49.574Z,99289.37
2018-04-23T16:17:28.711Z,99293.68
2018-04-23T16:20:08.113Z,99294.38
2018-04-23T16:22:45.091Z,99290.80
2018-04-23T16:25:24.617Z,99292.11
2018-04-23T16:44:44.750Z,99335.17
2018-04-23T16:47:21.824Z,99352.74
2018-04-23T16:52:56.144Z,99357.49
2018-04-23T16:55:49.489Z,99354.33
2018-04-23T16:58:30.754Z,99352.77
2018-04-23T17:01:10.145Z,99351.23
2018-04-23T17:03:46.312Z,99358.06
2018-04-23T17:06:28.255Z,99347.41
2018-04-23T17:09:04.656Z,99353.67
2018-04-23T17:11:39.296Z,99358.47
2018-04-23T17:14:14.727Z,99362.77
2018-04-23T17:16:54.888Z,99369.30
2018-04-23T17:19:32.262Z,99365.22
2018-04-23T17:22:07.421Z,99372.80
2018-04-23T17:24:47.289Z,99371.53
2018-04-23T17:27:25.382Z,99370.97
2018-04-23T17:29:59.125Z,99369.34
2018-04-23T17:32:36.032Z,99376.67
2018-04-23T17:35:10.198Z,99378.34
2018-04-23T17:37:48.852Z,99384.22
2018-04-23T17:40:29.577Z,99385.52
2018-04-23T17:43:07.480Z,99385.02
2018-04-23T17:45:47.715Z,99386.66
2018-04-23T17:48:23.337Z,99374.60
2018-04-23T17:51:04.290Z,99386.38
2018-04-23T17:53:39.280Z,99402.55
2018-04-23T17:57:57.435Z,99399.79
2018-04-23T18:00:33.337Z,99413.20
2018-04-23T18:03:17.844Z,99416.03
2018-04-23T18:05:52.989Z,99418.44
2018-04-23T18:08:47.077Z,99427.47
2018-04-23T18:11:27.708Z,99435.13
2018-04-23T18:14:05.646Z,99439.00
2018-04-23T18:16:52.707Z,99442.31
2018-04-23T18:19:47.741Z,99446.67
2018-04-23T18:22:31.683Z,99447.61
2018-04-23T18:28:15.037Z,99446.36
2018-04-23T18:30:55.940Z,99448.37
2018-04-23T18:33:33.378Z,99448.87
2018-04-23T18:36:11.784Z,99450.64
2018-04-23T18:38:46.249Z,99445.27
2018-04-23T18:41:21.134Z,99444.83
2018-04-23T18:44:00.644Z,99454.13
2018-04-23T18:46:40.423Z,99453.76
2018-04-23T18:49:14.549Z,99456.52
2018-04-23T18:51:52.692Z,99456.28
2018-04-23T18:54:26.994Z,99447.89
2018-04-23T18:57:03.026Z,99457.69
2018-04-23T18:59:36.800Z,99451.23
2018-04-23T19:02:10.783Z,99457.80
2018-04-23T19:04:44.311Z,99464.99
2018-04-23T19:07:21.823Z,99460.30
2018-04-23T19:09:56.899Z,99466.23
2018-04-23T19:12:30.142Z,99459.78
2018-04-23T19:15:04.066Z,99470.58
2018-04-23T19:17:37.665Z,99471.26
2018-04-23T19:20:11.317Z,99471.41
2018-04-23T19:22:45.290Z,99479.00
2018-04-23T19:25:19.103Z,99464.93
2018-04-23T19:27:52.337Z,99466.74
2018-04-23T19:30:26.630Z,99470.47
2018-04-23T19:33:00.353Z,99466.80
2018-04-23T19:35:34.011Z,99482.72
2018-04-23T19:38:07.606Z,99487.22
2018-04-23T19:40:41.029Z,99493.42
2018-04-23T19:43:16.925Z,99498.78
2018-04-23T19:46:01.732Z,99497.02
2018-04-23T19:48:36.491Z,99496.86
2018-04-23T19:51:12.573Z,99499.52
2018-04-23T19:53:45.949Z,99499.30
2018-04-23T19:56:20.424Z,99498.58
2018-04-23T19:58:54.165Z,99509.08
2018-04-23T20:01:27.592Z,99509.32
2018-04-23T20:04:01.573Z,99515.42
2018-04-23T20:06:35.699Z,99525.66
2018-04-23T20:09:09.133Z,99524.62
2018-04-23T20:11:43.341Z,99526.53
2018-04-23T20:14:17.959Z,99532.77
2018-04-23T20:16:51.697Z,99530.31
2018-04-23T20:19:25.336Z,99534.66
2018-04-23T20:21:59.014Z,99532.61
2018-04-23T20:24:32.433Z,99537.53
2018-04-23T20:27:07.494Z,99545.09
2018-04-23T20:29:41.156Z,99548.23
2018-04-23T20:32:14.472Z,99546.83
2018-04-23T20:34:50.181Z,99549.23
2018-04-23T20:37:26.176Z,99550.56
2018-04-23T20:40:01.226Z,99547.58
2018-04-23T20:42:37.294Z,99556.16
2018-04-23T20:45:11.153Z,99554.02
2018-04-23T20:47:44.863Z,99558.06
2018-04-23T20:50:18.474Z,99557.60
2018-04-23T20:52:51.945Z,99555.04
2018-04-23T20:55:25.659Z,99563.76
2018-04-23T20:57:59.626Z,99569.41
2018-04-23T21:00:33.027Z,99577.98
2018-04-23T21:03:06.761Z,99584.44
2018-04-23T21:05:40.458Z,99582.93
2018-04-23T21:08:14.165Z,99582.46
2018-04-23T21:10:47.761Z,99592.50
2018-04-23T21:13:21.289Z,99590.66
2018-04-23T21:15:54.589Z,99595.22
2018-04-23T21:18:30.672Z,99596.30
2018-04-23T21:21:04.493Z,99602.89
2018-04-23T21:23:37.829Z,99606.63
2018-04-23T21:26:11.599Z,99606.20
2018-04-23T21:28:46.272Z,99612.25
2018-04-23T21:31:20.041Z,99617.09
2018-04-23T21:33:53.493Z,99623.38
2018-04-23T21:36:27.193Z,99626.61
2018-04-23T21:39:00.564Z,99619.66
2018-04-23T21:41:34.168Z,99616.19
2018-04-23T21:44:07.463Z,99608.41
2018-04-23T21:46:40.929Z,99612.44
2018-04-23T21:49:15.106Z,99617.23
2018-04-23T21:51:49.777Z,99618.25
2018-04-23T21:54:23.486Z,99625.08
2018-04-23T21:56:56.994Z,99624.70
2018-04-23T21:59:31.610Z,99625.06
2018-04-23T22:02:05.143Z,99622.33
2018-04-23T22:04:38.937Z,99626.56
2018-04-23T22:07:12.457Z,99628.94
2018-04-23T22:09:45.795Z,99630.03
2018-04-23T22:12:19.223Z,99632.95
2018-04-23T22:14:52.628Z,99626.67
2018-04-23T22:17:26.096Z,99631.77
2018-04-23T22:19:59.535Z,99623.49
2018-04-23T22:22:32.824Z,99620.75
2018-04-23T22:25:06.153Z,99617.51
2018-04-23T22:27:40.907Z,99621.91
2018-04-23T22:30:14.213Z,99621.06
2018-04-23T22:32:47.710Z,99615.86
2018-04-23T22:35:21.311Z,99622.89
2018-04-23T22:37:54.561Z,99620.83
2018-04-23T22:40:27.887Z,99625.25
2018-04-23T22:43:01.436Z,99626.00
2018-04-23T22:45:35.145Z,99631.16
2018-04-23T22:48:08.528Z,99632.17
2018-04-23T22:50:42.040Z,99629.46
2018-04-23T22:53:15.631Z,99632.98
2018-04-23T22:55:49.436Z,99632.95
2018-04-23T22:58:22.937Z,99636.94
2018-04-23T23:00:56.666Z,99637.83
2018-04-23T23:03:30.220Z,99636.19
2018-04-23T23:06:04.229Z,99634.57
2018-04-23T23:08:37.514Z,99639.37
2018-04-23T23:11:12.512Z,99636.19
2018-04-23T23:13:45.933Z,99638.64
2018-04-23T23:16:19.250Z,99633.55
2018-04-23T23:18:52.605Z,99638.06
2018-04-23T23:21:27.709Z,99639.54
2018-04-23T23:24:02.849Z,99642.81
2018-04-23T23:26:36.309Z,99642.51
2018-04-23T23:29:09.663Z,99637.67
2018-04-23T23:31:43.767Z,99643.23
2018-04-23T23:34:17.181Z,99641.73
2018-04-23T23:36:50.523Z,99636.11
2018-04-23T23:39:23.985Z,99632.59
2018-04-23T23:41:57.329Z,99630.80
2018-04-23T23:44:30.661Z,99633.17
2018-04-23T23:47:04.119Z,99628.77
2018-04-23T23:49:37.488Z,99632.16
2018-04-23T23:52:10.907Z,99634.83
2018-04-23T23:54:44.188Z,99641.66
2018-04-23T23:57:17.621Z,99641.77
2018-04-23T23:59:51.158Z,99638.67
